Time;durP1;ratioP1;P1;durP2;ratioP2;P2;SDS_P1;SDS_P2;PMS_P1;PMS_P2;Temp;Humidity;BMP_temperature;BMP_pressure;BME280_temperature;BME280_humidity;BME280_pressure;Samples;Min_cycle;Max_cycle;Signal;HPM_P1;HPM_P2
2022/11/09 00:00:50;;;;;;;10.80;6.50;;;;;;;4.65;84.38;99449.96;102273;1294;61992;-25
2022/11/09 00:03:17;;;;;;;10.30;6.80;;;;;;;4.61;85.48;99447.95;102253;1299;61603;-24
2022/11/09 00:05:55;;;;;;;19.70;9.70;;;;;;;5.09;85.98;99446.37;102286;1298;76473;-24
2022/11/09 00:08:22;;;;;;;18.80;11.80;;;;;;;5.32;85.53;99452.55;102047;1301;76528;-24
2022/11/09 00:10:49;;;;;;;16.00;10.40;;;;;;;5.28;86.24;99452.09;102239;1294;74136;-24
2022/11/09 00:13:17;;;;;;;20.30;10.80;;;;;;;5.14;86.64;99449.73;102190;1301;62599;-24
2022/11/09 00:15:44;;;;;;;14.00;8.40;;;;;;;5.08;87.30;99448.14;102298;1283;61808;-24
2022/11/09 00:18:11;;;;;;;17.80;9.60;;;;;;;5.55;86.47;99447.41;102269;1291;76440;-24
2022/11/09 00:20:39;;;;;;;20.00;10.30;;;;;;;5.73;84.86;99448.48;102288;1298;76999;-24
2022/11/09 00:23:13;;;;;;;18.00;9.60;;;;;;;5.59;84.57;99451.14;102261;1299;75324;-24
2022/11/09 00:25:40;;;;;;;16.30;9.30;;;;;;;5.34;84.95;99455.23;102253;1302;62746;-25
2022/11/09 00:28:07;;;;;;;16.70;10.30;;;;;;;5.19;85.96;99461.36;102283;1299;61572;-24
2022/11/09 00:30:34;;;;;;;15.90;9.90;;;;;;;5.57;84.60;99461.08;102333;1294;75283;-25
2022/11/09 00:33:01;;;;;;;16.60;9.60;;;;;;;5.69;82.77;99458.19;102285;1301;76808;-25
2022/11/09 00:35:28;;;;;;;15.90;9.80;;;;;;;5.51;82.68;99453.79;102202;1302;75102;-26
2022/11/09 00:37:56;;;;;;;17.20;9.30;;;;;;;5.21;83.51;99455.74;102184;1302;61390;-25
2022/11/09 00:40:23;;;;;;;12.20;7.20;;;;;;;4.90;84.35;99455.95;102155;1295;61527;-27
2022/11/09 00:42:50;;;;;;;13.50;7.90;;;;;;;4.94;84.51;99451.42;102239;1295;76420;-26
2022/11/09 00:45:17;;;;;;;15.00;9.20;;;;;;;5.24;82.94;99452.62;102336;1299;76786;-23
2022/11/09 00:47:44;;;;;;;19.10;9.60;;;;;;;5.18;82.25;99453.12;102286;1302;75197;-24
2022/11/09 00:50:11;;;;;;;18.30;9.30;;;;;;;4.91;82.46;99450.57;102307;1302;61839;-23
2022/11/09 00:52:38;;;;;;;17.30;9.70;;;;;;;4.60;83.75;99451.23;102270;1298;61220;-23
2022/11/09 00:55:06;;;;;;;17.00;9.30;;;;;;;4.40;85.15;99448.81;102277;1299;76451;-24
2022/11/09 00:57:33;;;;;;;13.70;9.20;;;;;;;4.78;84.94;99450.20;102208;1295;76114;-23
2022/11/09 01:00:01;;;;;;;18.80;10.30;;;;;;;5.03;84.62;99449.92;102342;1292;75269;-24
2022/11/09 01:02:29;;;;;;;15.90;9.40;;;;;;;4.99;84.94;99448.95;102333;1299;62823;-23
2022/11/09 01:04:56;;;;;;;16.80;10.30;;;;;;;4.81;85.11;99446.57;102308;1298;61697;-24
2022/11/09 01:07:24;;;;;;;14.30;7.50;;;;;;;4.62;86.26;99443.94;102386;1291;76411;-24
2022/11/09 01:09:51;;;;;;;19.00;9.70;;;;;;;4.96;86.55;99446.34;102217;1295;76795;-24
2022/11/09 01:12:19;;;;;;;20.50;11.00;;;;;;;5.26;84.51;99441.89;102204;1302;75193;-24
2022/11/09 01:14:48;;;;;;;18.70;10.80;;;;;;;5.18;83.84;99442.30;102288;1295;62903;-24
2022/11/09 01:17:15;;;;;;;15.70;10.50;;;;;;;4.92;84.53;99444.29;102275;1292;61489;-24
2022/11/09 01:19:43;;;;;;;17.40;10.50;;;;;;;4.72;84.88;99447.38;102295;1294;76078;-24
2022/11/09 01:22:10;;;;;;;18.10;9.10;;;;;;;5.00;84.63;99446.66;102287;1299;75658;-24
2022/11/09 01:24:37;;;;;;;15.70;9.90;;;;;;;5.27;82.96;99447.86;102315;1302;75195;-24
2022/11/09 01:27:04;;;;;;;24.10;9.60;;;;;;;5.16;82.12;99449.26;102299;1302;62883;-23
2022/11/09 01:29:31;;;;;;;16.80;10.10;;;;;;;4.88;82.48;99450.20;102312;1293;62497;-24
2022/11/09 01:31:58;;;;;;;18.80;11.00;;;;;;;4.58;83.33;99448.78;102315;1294;75401;-24
2022/11/09 01:34:28;;;;;;;18.20;9.50;;;;;;;4.33;83.83;99451.05;102301;1292;76656;-24
2022/11/09 01:36:55;;;;;;;19.10;10.90;;;;;;;4.68;84.26;99450.35;102198;1298;74244;-24
2022/11/09 01:39:22;;;;;;;25.80;11.60;;;;;;;5.08;83.31;99454.52;102283;1299;62702;-24
2022/11/09 01:41:49;;;;;;;23.60;10.80;;;;;;;5.08;83.10;99453.83;102205;1299;61151;-24
2022/11/09 01:44:17;;;;;;;23.20;12.40;;;;;;;4.88;83.40;99452.43;102212;1294;74333;-24
2022/11/09 01:46:59;;;;;;;21.70;13.30;;;;;;;4.62;84.14;99453.55;102103;1299;76805;-24
2022/11/09 01:49:52;;;;;;;13.00;7.70;;;;;;;4.39;84.50;99455.58;102290;1299;74150;-24
2022/11/09 01:52:21;;;;;;;16.50;8.80;;;;;;;4.89;84.08;99452.72;102318;1294;62814;-24
2022/11/09 01:54:51;;;;;;;23.20;11.00;;;;;;;5.17;82.67;99450.42;102293;1285;61368;-24
2022/11/09 01:57:21;;;;;;;26.30;10.60;;;;;;;5.03;81.92;99452.36;102055;1299;76882;-23
2022/11/09 01:59:51;;;;;;;19.60;11.70;;;;;;;4.73;82.07;99447.70;102191;1294;76551;-23
2022/11/09 02:02:18;;;;;;;16.30;10.30;;;;;;;4.38;82.65;99448.89;102163;1301;75194;-24
2022/11/09 02:04:53;;;;;;;21.50;11.80;;;;;;;4.00;82.96;99446.09;102315;1291;62223;-24
2022/11/09 02:07:20;;;;;;;14.50;9.70;;;;;;;3.81;83.76;99449.92;102036;1294;62905;-24
2022/11/09 02:10:13;;;;;;;21.60;9.50;;;;;;;4.26;83.22;99449.34;102006;1295;76093;-24
2022/11/09 02:12:42;;;;;;;;;;;;;;;4.42;81.87;99447.48;102117;1301;76769;-24
2022/11/09 02:15:09;;;;;;;15.10;9.20;;;;;;;4.24;82.11;99450.96;102202;1300;75246;-24
2022/11/09 02:17:37;;;;;;;17.60;11.00;;;;;;;3.96;82.38;99454.71;102385;1297;62896;-24
2022/11/09 02:20:15;;;;;;;22.00;12.20;;;;;;;3.67;82.88;99454.99;102312;1299;61824;-24
2022/11/09 02:22:42;;;;;;;18.70;8.40;;;;;;;3.41;83.72;99455.48;102167;1295;76387;-24
2022/11/09 02:25:10;;;;;;;18.00;10.00;;;;;;;3.84;84.58;99456.64;102210;1301;76791;-24
2022/11/09 02:27:37;;;;;;;18.80;11.20;;;;;;;4.33;83.81;99456.88;102262;1302;75188;-24
2022/11/09 02:30:05;;;;;;;20.30;11.20;;;;;;;4.35;83.23;99457.82;101993;1303;63108;-24
2022/11/09 02:32:34;;;;;;;21.60;11.50;;;;;;;4.14;83.33;99459.36;102202;1295;62626;-24
2022/11/09 02:35:01;;;;;;;19.30;13.10;;;;;;;3.90;83.65;99459.98;102185;1299;74150;-24
2022/11/09 02:37:37;;;;;;;15.80;8.50;;;;;;;3.70;84.34;99459.70;102310;1298;76985;-24
2022/11/09 02:40:09;;;;;;;14.40;8.80;;;;;;;4.13;84.86;99462.30;101923;1302;75228;-23
2022/11/09 02:42:37;;;;;;;18.30;11.00;;;;;;;4.60;83.78;99457.44;102185;1288;61177;-23
2022/11/09 02:45:05;;;;;;;22.60;11.30;;;;;;;4.63;83.67;99454.91;102215;1301;62850;-23
2022/11/09 02:47:32;;;;;;;21.80;11.10;;;;;;;4.47;84.35;99454.51;102118;1292;76163;-23
2022/11/09 02:50:00;;;;;;;21.90;11.40;;;;;;;4.23;85.48;99457.17;102245;1299;76452;-23
2022/11/09 02:52:27;;;;;;;20.30;8.90;;;;;;;4.09;85.94;99454.79;102184;1300;73899;-23
2022/11/09 02:54:54;;;;;;;22.60;11.00;;;;;;;4.46;85.88;99453.32;102127;1302;62597;-23
2022/11/09 02:57:21;;;;;;;16.10;8.80;;;;;;;4.93;84.57;99452.02;102218;1299;61119;-23
2022/11/09 02:59:48;;;;;;;24.20;9.70;;;;;;;4.96;83.31;99448.74;102274;1299;76330;-23
2022/11/09 03:02:15;;;;;;;22.10;11.30;;;;;;;4.73;83.21;99451.27;102201;1302;76681;-23
2022/11/09 03:04:42;;;;;;;22.00;10.80;;;;;;;4.45;83.58;99450.10;102232;1293;74262;-23
2022/11/09 03:07:10;;;;;;;12.90;7.40;;;;;;;4.19;83.93;99450.67;102272;1297;62035;-23
2022/11/09 03:09:38;;;;;;;11.60;7.60;;;;;;;4.49;83.97;99449.05;102152;1292;61733;-23
2022/11/09 03:14:52;;;;;;;18.00;9.10;;;;;;;4.90;82.00;99453.86;102331;1298;76873;-23
2022/11/09 03:17:19;;;;;;;14.50;8.70;;;;;;;4.66;82.35;99455.09;102285;1302;75220;-23
2022/11/09 03:19:46;;;;;;;24.60;10.50;;;;;;;4.36;83.16;99455.37;102233;1292;61794;-23
2022/11/09 03:22:13;;;;;;;17.10;9.20;;;;;;;4.09;84.45;99449.98;102321;1286;62968;-23
2022/11/09 03:24:44;;;;;;;23.20;10.40;;;;;;;4.38;84.70;99449.94;102272;1298;76324;-25
2022/11/09 03:27:11;;;;;;;14.70;8.80;;;;;;;4.68;83.43;99446.39;102177;1302;76743;-26
2022/11/09 03:29:38;;;;;;;19.80;9.20;;;;;;;4.61;82.99;99443.63;102316;1292;75231;-26
2022/11/09 03:32:06;;;;;;;16.10;8.80;;;;;;;4.35;82.87;99445.77;102279;1299;62922;-25
2022/11/09 03:34:34;;;;;;;21.00;10.60;;;;;;;4.02;83.27;99440.84;102263;1302;62579;-25
2022/11/09 03:37:01;;;;;;;13.00;7.70;;;;;;;3.79;83.99;99442.27;102221;1300;76285;-25
2022/11/09 03:39:28;;;;;;;17.20;8.60;;;;;;;4.23;83.94;99438.95;102323;1299;76794;-24
2022/11/09 03:41:56;;;;;;;18.10;8.40;;;;;;;4.52;82.29;99440.45;102152;1300;75255;-23
2022/11/09 03:44:24;;;;;;;18.70;10.00;;;;;;;4.38;81.85;99441.14;102327;1298;62890;-23
2022/11/09 03:46:51;;;;;;;13.70;7.90;;;;;;;4.12;82.64;99445.85;105882;1290;61398;-24
2022/11/09 03:49:18;;;;;;;18.60;9.50;;;;;;;3.85;83.89;99443.55;105906;1294;74990;-23
2022/11/09 03:51:45;;;;;;;13.30;8.00;;;;;;;3.80;85.22;99445.48;105884;1291;75465;-23
2022/11/09 03:54:12;;;;;;;18.80;9.70;;;;;;;4.32;84.42;99442.16;105879;1291;74839;-24
2022/11/09 03:56:40;;;;;;;17.60;9.00;;;;;;;4.53;82.98;99437.52;105885;1292;62438;-24
2022/11/09 03:59:25;;;;;;;14.70;8.30;;;;;;;4.40;83.35;99437.97;105899;1291;62204;-23
2022/11/09 04:01:52;;;;;;;17.60;10.50;;;;;;;4.19;83.93;99440.03;105889;1291;75956;-23
2022/11/09 04:04:19;;;;;;;18.10;7.70;;;;;;;3.98;85.03;99442.05;105873;1287;76266;-23
2022/11/09 04:06:46;;;;;;;18.80;8.50;;;;;;;4.12;86.04;99437.29;105872;1297;73446;-23
2022/11/09 04:09:13;;;;;;;19.20;8.80;;;;;;;4.55;85.54;99438.27;105880;1291;62224;-23
2022/11/09 04:11:40;;;;;;;15.10;9.00;;;;;;;4.69;85.21;99436.18;105888;1291;59982;-23
2022/11/09 04:14:07;;;;;;;16.40;10.60;;;;;;;4.63;84.80;99434.58;105897;1292;75749;-23
2022/11/09 04:16:35;;;;;;;18.60;10.50;;;;;;;4.41;84.76;99436.39;105894;1291;76260;-23
2022/11/09 04:19:02;;;;;;;17.10;10.30;;;;;;;4.37;85.45;99437.77;105781;1291;74717;-24
2022/11/09 04:21:29;;;;;;;13.00;8.10;;;;;;;4.86;84.90;99442.38;105884;1294;62724;-24
2022/11/09 04:23:56;;;;;;;11.90;7.50;;;;;;;5.02;83.20;99443.79;105931;1284;62696;-23
2022/11/09 04:26:23;;;;;;;22.00;10.50;;;;;;;4.87;83.15;99447.30;105914;1290;75185;-24
2022/11/09 04:28:50;;;;;;;18.40;9.80;;;;;;;4.63;83.88;99448.34;105756;1295;75732;-23
2022/11/09 04:31:17;;;;;;;14.60;7.90;;;;;;;4.40;84.96;99446.21;105924;1291;74783;-23
2022/11/09 04:33:48;;;;;;;13.20;8.30;;;;;;;4.51;85.59;99442.95;105920;1285;62195;-24
2022/11/09 04:36:15;;;;;;;15.60;8.90;;;;;;;4.91;83.86;99446.96;105694;1290;61320;-23
2022/11/09 04:38:43;;;;;;;15.20;9.30;;;;;;;4.97;83.04;99444.92;105927;1292;75909;-23
2022/11/09 04:41:10;;;;;;;17.00;8.50;;;;;;;4.77;82.63;99448.88;105935;1292;77151;-23
2022/11/09 04:43:37;;;;;;;16.30;11.00;;;;;;;4.49;83.09;99447.15;105844;1290;74496;-23
2022/11/09 04:46:04;;;;;;;13.00;8.40;;;;;;;4.23;83.67;99449.66;105818;1294;61267;-23
2022/11/09 04:48:31;;;;;;;13.30;8.50;;;;;;;4.54;83.64;99447.08;105912;1290;62389;-23
2022/11/09 04:51:06;;;;;;;16.60;10.10;;;;;;;4.99;82.37;99451.54;105943;1291;75887;-23
2022/11/09 04:53:33;;;;;;;17.70;9.80;;;;;;;4.98;81.81;99451.21;105825;1294;75419;-23
2022/11/09 04:56:01;;;;;;;16.30;9.80;;;;;;;4.74;82.31;99457.09;105900;1292;74781;-23
2022/11/09 04:58:28;;;;;;;12.10;7.90;;;;;;;4.50;83.25;99461.56;105955;1290;62418;-23
2022/11/09 05:01:03;;;;;;;14.20;8.70;;;;;;;4.25;84.36;99465.87;105935;1292;62594;-23
2022/11/09 05:03:30;;;;;;;17.20;9.80;;;;;;;4.58;84.36;99465.27;105806;1295;75039;-24
2022/11/09 05:05:57;;;;;;;16.40;10.10;;;;;;;5.05;82.74;99466.02;105930;1291;76354;-23
2022/11/09 05:08:24;;;;;;;16.10;9.80;;;;;;;5.03;81.99;99463.19;105915;1292;75384;-23
2022/11/09 05:10:56;;;;;;;15.60;9.50;;;;;;;4.81;82.13;99461.73;105819;1290;62957;-23
2022/11/09 05:13:23;;;;;;;17.20;7.90;;;;;;;4.53;82.66;99463.30;105766;1294;61253;-23
2022/11/09 05:15:50;;;;;;;9.50;6.50;;;;;;;4.26;83.62;99468.06;105920;1291;76204;-24
2022/11/09 05:18:17;;;;;;;18.50;9.60;;;;;;;4.37;83.96;99468.19;105869;1291;76249;-23
2022/11/09 05:20:44;;;;;;;14.50;10.00;;;;;;;4.79;82.55;99471.80;105926;1287;74735;-24
2022/11/09 05:25:56;;;;;;;16.70;9.30;;;;;;;4.59;82.28;99480.38;105919;1298;62177;-23
2022/11/09 05:28:23;;;;;;;13.10;7.80;;;;;;;4.36;82.93;99486.98;105904;1292;76100;-23
2022/11/09 05:30:50;;;;;;;14.10;8.10;;;;;;;4.13;83.89;99490.14;105844;1292;74470;-23
2022/11/09 05:33:17;;;;;;;15.20;8.10;;;;;;;4.37;84.49;99493.80;105817;1286;74770;-24
2022/11/09 05:35:45;;;;;;;15.00;8.90;;;;;;;4.89;83.32;99495.22;105809;1295;61326;-24
2022/11/09 05:38:12;;;;;;;13.50;8.90;;;;;;;4.92;82.99;99498.85;105826;1295;62357;-24
2022/11/09 05:40:39;;;;;;;11.90;8.00;;;;;;;4.81;83.90;99500.80;105825;1291;75930;-23
2022/11/09 05:43:06;;;;;;;16.00;10.00;;;;;;;4.67;84.36;99505.77;105817;1298;76408;-23
2022/11/09 05:45:33;;;;;;;12.20;8.10;;;;;;;4.57;85.06;99512.11;105742;1294;74691;-23
2022/11/09 05:48:10;;;;;;;15.60;8.30;;;;;;;5.02;84.25;99513.48;105753;1296;61421;-23
2022/11/09 05:50:38;;;;;;;14.80;8.80;;;;;;;5.34;82.79;99514.41;105658;1296;62442;-23
2022/11/09 05:53:09;;;;;;;17.30;9.60;;;;;;;5.28;82.24;99516.27;105835;1291;75733;-24
2022/11/09 05:55:36;;;;;;;17.90;10.50;;;;;;;5.08;82.43;99517.67;105745;1292;75482;-24
2022/11/09 05:58:03;;;;;;;16.00;8.50;;;;;;;4.86;83.16;99517.70;105738;1292;74584;-24
2022/11/09 06:00:30;;;;;;;14.10;8.70;;;;;;;4.81;83.60;99517.46;105803;1295;62085;-23
2022/11/09 06:03:04;;;;;;;12.20;7.90;;;;;;;5.31;82.66;99518.40;105816;1295;62759;-23
2022/11/09 06:05:33;;;;;;;14.10;8.80;;;;;;;5.55;81.77;99521.29;105830;1294;74714;-24
2022/11/09 06:08:04;;;;;;;15.50;10.10;;;;;;;5.45;81.90;99526.42;105639;1292;76251;-24
2022/11/09 06:10:31;;;;;;;17.20;9.20;;;;;;;5.26;82.13;99526.23;105662;1292;74749;-24
2022/11/09 06:12:58;;;;;;;19.70;10.30;;;;;;;5.08;82.83;99526.42;105816;1295;62468;-23
2022/11/09 06:15:25;;;;;;;16.20;8.40;;;;;;;4.96;83.68;99526.38;105826;1294;62137;-23
2022/11/09 06:17:55;;;;;;;18.20;9.90;;;;;;;5.34;83.36;99525.63;105837;1290;76330;-24
2022/11/09 06:20:23;;;;;;;19.40;11.20;;;;;;;5.69;82.18;99523.14;105667;1297;75369;-24
2022/11/09 06:22:57;;;;;;;23.20;12.10;;;;;;;5.68;81.77;99520.23;105811;1294;75020;-23
2022/11/09 06:25:30;;;;;;;22.50;13.20;;;;;;;5.49;81.85;99520.52;105740;1294;61115;-23
2022/11/09 06:27:57;;;;;;;22.20;10.90;;;;;;;5.28;82.74;99522.50;105679;1298;61095;-23
2022/11/09 06:30:24;;;;;;;15.80;8.30;;;;;;;5.21;83.51;99519.42;105596;1296;75807;-24
2022/11/09 06:32:59;;;;;;;17.50;10.00;;;;;;;5.72;83.51;99522.94;105769;1294;76252;-24
2022/11/09 06:35:27;;;;;;;18.50;9.90;;;;;;;6.20;82.00;99522.63;105682;1298;75141;-23
2022/11/09 06:37:58;;;;;;;15.20;10.30;;;;;;;6.29;81.72;99526.44;105728;1294;59870;-24
2022/11/09 06:40:25;;;;;;;19.80;9.20;;;;;;;6.25;81.51;99520.27;105710;1293;62395;-23
2022/11/09 06:42:56;;;;;;;14.60;9.20;;;;;;;6.17;81.72;99524.55;105756;1294;75945;-23
2022/11/09 06:45:23;;;;;;;20.10;11.90;;;;;;;6.09;82.10;99523.56;105717;1294;76697;-23
2022/11/09 06:47:54;;;;;;;15.50;7.50;;;;;;;6.04;82.52;99523.17;105755;1293;73648;-23
2022/11/09 06:50:21;;;;;;;14.60;10.20;;;;;;;6.15;82.73;99524.96;105710;1285;62832;-23
2022/11/09 06:52:48;;;;;;;18.40;11.00;;;;;;;6.83;81.05;99522.50;105743;1294;62240;-23
2022/11/09 06:55:15;;;;;;;14.20;8.90;;;;;;;7.17;79.43;99524.66;105876;1284;75849;-25
2022/11/09 06:57:42;;;;;;;21.00;11.50;;;;;;;7.16;79.10;99522.50;105772;1294;75116;-24
2022/11/09 07:00:10;;;;;;;15.90;10.20;;;;;;;7.06;79.44;99521.20;105846;1291;74578;-24
2022/11/09 07:02:37;;;;;;;12.10;7.60;;;;;;;7.00;79.74;99523.59;105613;1295;61382;-24
2022/11/09 07:05:04;;;;;;;18.70;11.70;;;;;;;6.88;80.05;99525.85;105693;1294;61206;-24
2022/11/09 07:07:31;;;;;;;22.10;12.10;;;;;;;6.88;80.41;99523.94;105796;1295;75891;-23
2022/11/09 07:09:59;;;;;;;16.60;10.60;;;;;;;6.81;80.46;99523.00;105865;1295;74478;-24
2022/11/09 07:12:27;;;;;;;11.40;7.50;;;;;;;6.76;81.11;99514.84;105784;1293;73663;-24
2022/11/09 07:14:54;;;;;;;15.90;10.30;;;;;;;7.13;80.55;99521.13;105706;1288;62269;-24
2022/11/09 07:17:22;;;;;;;16.40;11.00;;;;;;;7.74;78.75;99524.36;105696;1296;61040;-24
2022/11/09 07:19:49;;;;;;;17.80;10.00;;;;;;;7.90;77.23;99523.34;105762;1294;74859;-24
2022/11/09 07:22:16;;;;;;;18.40;9.50;;;;;;;7.85;77.43;99528.53;105781;1295;76369;-24
2022/11/09 07:24:43;;;;;;;15.60;9.00;;;;;;;7.61;77.53;99519.48;105746;1283;74550;-24
2022/11/09 07:27:10;;;;;;;17.10;9.60;;;;;;;7.49;78.23;99526.56;105673;1294;62387;-24
2022/11/09 07:29:37;;;;;;;13.10;10.50;;;;;;;7.31;79.07;99526.11;105723;1294;62638;-23
2022/11/09 07:32:04;;;;;;;11.40;6.90;;;;;;;7.29;79.97;99526.06;105691;1293;74805;-24
2022/11/09 07:34:31;;;;;;;8.80;6.50;;;;;;;7.38;79.74;99525.69;105722;1296;76721;-24
2022/11/09 07:36:58;;;;;;;18.60;11.60;;;;;;;7.90;78.15;99524.10;105736;1297;74944;-24
2022/11/09 07:39:25;;;;;;;16.20;8.70;;;;;;;8.28;76.99;99522.23;105719;1294;62175;-24
2022/11/09 07:41:54;;;;;;;15.00;10.20;;;;;;;8.33;76.10;99524.63;105729;1291;62509;-24
2022/11/09 07:44:24;;;;;;;19.90;12.20;;;;;;;8.30;75.66;99521.20;105669;1298;74801;-24
2022/11/09 07:46:51;;;;;;;16.90;9.10;;;;;;;8.27;76.23;99522.58;105736;1294;76200;-24
2022/11/09 07:49:18;;;;;;;13.90;8.70;;;;;;;8.25;76.85;99520.49;105679;1294;74610;-24
2022/11/09 07:51:45;;;;;;;16.20;9.00;;;;;;;8.20;75.91;99519.94;105694;1298;62365;-25
2022/11/09 07:54:12;;;;;;;13.50;9.10;;;;;;;8.21;76.47;99520.91;105702;1296;61348;-25
2022/11/09 07:56:39;;;;;;;15.50;8.80;;;;;;;8.25;76.78;99515.97;105771;1293;75490;-25
2022/11/09 07:59:07;;;;;;;18.90;11.90;;;;;;;8.30;76.46;99518.45;105703;1298;76472;-25
2022/11/09 08:01:35;;;;;;;20.50;11.70;;;;;;;8.47;76.35;99517.33;105700;1293;74381;-25
2022/11/09 08:04:02;;;;;;;15.90;9.50;;;;;;;8.58;75.70;99511.81;105718;1299;60959;-26
2022/11/09 08:06:29;;;;;;;16.90;9.50;;;;;;;8.53;76.17;99514.75;105711;1295;60401;-25
2022/11/09 08:08:56;;;;;;;9.70;6.60;;;;;;;8.57;75.55;99513.42;105732;1293;76488;-25
2022/11/09 08:11:23;;;;;;;13.90;7.80;;;;;;;8.66;75.93;99510.27;105707;1290;76846;-25
2022/11/09 08:13:50;;;;;;;13.30;7.70;;;;;;;8.72;75.76;99514.38;105675;1293;75265;-26
2022/11/09 08:16:17;;;;;;;9.50;5.40;;;;;;;8.76;75.09;99512.88;105723;1295;61316;-25
2022/11/09 08:18:44;;;;;;;15.80;7.40;;;;;;;8.84;75.00;99515.98;105724;1295;61618;-26
2022/11/09 08:21:11;;;;;;;14.40;9.20;;;;;;;8.96;75.08;99514.67;105725;1284;75794;-26
2022/11/09 08:23:39;;;;;;;13.70;7.80;;;;;;;9.09;74.02;99511.55;105703;1295;75503;-26
2022/11/09 08:26:06;;;;;;;16.50;9.40;;;;;;;9.18;73.52;99512.91;105682;1301;73728;-26
2022/11/09 08:28:33;;;;;;;13.60;7.60;;;;;;;9.29;73.37;99514.73;105648;1296;63019;-25
2022/11/09 08:31:04;;;;;;;13.90;9.00;;;;;;;9.38;72.76;99515.52;105672;1295;60475;-26
2022/11/09 08:33:33;;;;;;;13.20;7.80;;;;;;;9.58;72.61;99514.63;105551;1297;75938;-26
2022/11/09 08:36:01;;;;;;;10.60;6.30;;;;;;;9.72;71.98;99516.27;105647;1296;76627;-25
2022/11/09 08:38:28;;;;;;;18.40;9.10;;;;;;;9.77;71.19;99514.50;105635;1301;73851;-26
2022/11/09 08:40:58;;;;;;;16.70;9.00;;;;;;;9.83;72.37;99515.11;105699;1295;62299;-24
2022/11/09 08:43:25;;;;;;;10.90;5.60;;;;;;;10.16;72.10;99514.01;104610;1299;1094127;-24
2022/11/09 08:45:52;;;;;;;12.30;7.40;;;;;;;10.34;70.16;99511.89;105726;1295;75345;-24
2022/11/09 08:48:19;;;;;;;12.90;6.90;;;;;;;10.45;69.00;99505.70;105715;1295;76896;-24
2022/11/09 08:50:54;;;;;;;9.10;6.30;;;;;;;10.50;68.84;99507.65;105750;1301;74803;-24
2022/11/09 08:53:25;;;;;;;15.20;7.40;;;;;;;10.59;68.16;99503.13;105426;1298;62542;-24
2022/11/09 08:55:52;;;;;;;11.60;6.50;;;;;;;10.77;68.44;99502.12;105650;1301;60810;-23
2022/11/09 08:58:19;;;;;;;7.40;5.20;;;;;;;11.02;67.06;99498.19;105721;1294;76501;-24
2022/11/09 09:00:47;;;;;;;11.60;7.60;;;;;;;11.13;66.79;99501.48;105729;1291;76306;-24
2022/11/09 09:03:14;;;;;;;9.20;6.10;;;;;;;11.37;66.74;99503.88;105699;1295;75103;-23
2022/11/09 09:05:41;;;;;;;10.40;7.10;;;;;;;11.44;65.60;99500.21;105715;1295;61861;-24
2022/11/09 09:08:10;;;;;;;8.10;5.20;;;;;;;11.53;65.31;99493.82;105717;1295;60281;-23
2022/11/09 09:10:37;;;;;;;8.30;5.70;;;;;;;11.70;64.54;99494.69;105695;1288;76123;-23
2022/11/09 09:13:04;;;;;;;11.80;6.50;;;;;;;11.72;63.93;99493.34;105727;1295;76607;-23
2022/11/09 09:15:31;;;;;;;9.00;5.20;;;;;;;11.82;63.52;99494.45;105665;1298;75139;-24
2022/11/09 09:18:00;;;;;;;11.30;5.10;;;;;;;12.05;63.04;99486.25;105708;1293;62683;-23
2022/11/09 09:20:27;;;;;;;14.80;5.80;;;;;;;12.02;61.55;99485.91;105557;1296;61060;-23
2022/11/09 09:22:56;;;;;;;9.10;5.30;;;;;;;12.14;61.89;99487.80;105730;1295;75864;-23
2022/11/09 09:25:24;;;;;;;9.90;5.90;;;;;;;12.35;61.06;99481.42;105591;1291;76367;-24
2022/11/09 09:27:51;;;;;;;8.20;5.10;;;;;;;12.38;60.88;99477.00;105592;1295;75086;-24
2022/11/09 09:30:18;;;;;;;7.00;4.10;;;;;;;12.45;60.51;99475.91;105688;1288;61101;-23
2022/11/09 09:32:46;;;;;;;9.40;4.20;;;;;;;12.61;60.24;99470.77;105693;1295;62677;-23
2022/11/09 09:35:13;;;;;;;6.30;4.00;;;;;;;12.75;60.26;99466.63;105703;1294;75701;-23
2022/11/09 09:37:41;;;;;;;7.60;4.50;;;;;;;12.67;59.48;99461.02;105658;1295;74515;-23
2022/11/09 09:40:19;;;;;;;7.40;4.80;;;;;;;12.37;59.91;99461.03;105564;1298;73589;-24
2022/11/09 09:42:46;;;;;;;7.40;4.50;;;;;;;12.21;60.18;99459.02;105621;1298;62423;-23
2022/11/09 09:45:18;;;;;;;6.60;4.80;;;;;;;12.33;60.40;99460.13;105582;1301;60995;-23
2022/11/09 09:47:52;;;;;;;9.50;4.90;;;;;;;12.35;59.60;99458.41;105434;1303;76010;-23
2022/11/09 09:50:21;;;;;;;7.30;5.20;;;;;;;12.28;60.62;99455.30;105592;1298;76356;-24
2022/11/09 09:52:51;;;;;;;8.90;5.20;;;;;;;12.21;60.73;99456.73;105568;1296;75003;-23
2022/11/09 09:55:40;;;;;;;6.50;4.50;;;;;;;12.46;59.80;99453.89;105654;1288;62475;-24
2022/11/09 09:58:12;;;;;;;7.50;4.80;;;;;;;12.46;59.68;99454.73;105596;1289;62327;-23
2022/11/09 10:00:39;;;;;;;8.20;5.30;;;;;;;12.55;59.25;99449.06;105523;1300;76014;-24
2022/11/09 10:03:13;;;;;;;9.20;5.70;;;;;;;12.68;59.15;99449.27;105609;1288;75502;-24
2022/11/09 10:06:04;;;;;;;8.20;5.10;;;;;;;12.70;59.63;99449.75;105530;1295;74795;-23
2022/11/09 10:10:36;;;;;;;7.60;4.00;;;;;;;13.32;57.94;99441.37;99282;1338;600497;-23
2022/11/09 10:13:25;;;;;;;7.90;4.50;;;;;;;13.40;57.32;99441.60;101082;1312;62644;-23
2022/11/09 10:16:05;;;;;;;7.20;4.70;;;;;;;13.38;57.37;99439.17;101266;1312;62747;-23
2022/11/09 10:18:54;;;;;;;6.00;4.00;;;;;;;13.26;57.25;99438.45;101074;1312;74880;-23
2022/11/09 10:21:34;;;;;;;8.50;5.10;;;;;;;13.41;57.70;99433.31;101175;1307;77045;-23
2022/11/09 10:24:17;;;;;;;7.20;4.30;;;;;;;13.47;57.15;99432.84;100538;1305;1110541;-24
2022/11/09 10:26:53;;;;;;;6.00;4.30;;;;;;;13.43;56.76;99425.63;101339;1304;62855;-24
2022/11/09 10:29:22;;;;;;;6.20;4.40;;;;;;;13.35;56.85;99418.65;101899;1294;62409;-25
2022/11/09 10:31:58;;;;;;;9.20;5.20;;;;;;;13.26;57.58;99418.76;101938;1305;73982;-24
2022/11/09 10:34:27;;;;;;;7.80;4.90;;;;;;;13.37;56.68;99413.42;101860;1302;76771;-24
2022/11/09 10:37:02;;;;;;;7.30;4.20;;;;;;;13.28;57.29;99411.24;101967;1305;74919;-24
2022/11/09 10:39:39;;;;;;;5.10;3.90;;;;;;;13.33;56.82;99407.14;101818;1300;62722;-24
2022/11/09 10:42:25;;;;;;;5.80;4.20;;;;;;;13.14;57.70;99405.77;101814;1302;61675;-24
2022/11/09 10:45:33;;;;;;;8.00;4.20;;;;;;;13.21;57.55;99402.98;101886;1302;74822;-24
2022/11/09 10:48:32;;;;;;;6.50;4.40;;;;;;;13.34;57.41;99404.29;101854;1305;75564;-24
2022/11/09 10:51:42;;;;;;;4.90;3.90;;;;;;;13.31;57.17;99404.39;101872;1304;75157;-24
2022/11/09 10:54:31;;;;;;;6.60;4.70;;;;;;;13.25;58.00;99402.95;101878;1302;62835;-24
2022/11/09 10:57:22;;;;;;;11.50;5.70;;;;;;;13.21;57.42;99397.50;101869;1302;61448;-24
2022/11/09 11:00:16;;;;;;;20.30;5.70;;;;;;;13.23;57.43;99392.98;101770;1304;74571;-24
2022/11/09 11:03:09;;;;;;;;;;;;;;;13.36;57.07;99390.64;101906;1298;76759;-24
2022/11/09 11:06:00;;;;;;;6.70;5.00;;;;;;;13.29;57.39;99392.16;101843;1300;74111;-24
2022/11/09 11:09:12;;;;;;;9.60;5.40;;;;;;;13.37;58.04;99393.70;101817;1305;62893;-24
2022/11/09 11:12:16;;;;;;;8.60;5.30;;;;;;;13.52;57.79;99391.06;101857;1297;62960;-24
2022/11/09 11:15:02;;;;;;;9.40;6.00;;;;;;;13.56;58.07;99393.82;101871;1298;75559;-24
2022/11/09 11:17:47;;;;;;;8.60;4.70;;;;;;;13.61;57.72;99388.02;101855;1297;76767;-24
2022/11/09 11:20:35;;;;;;;11.80;5.50;;;;;;;13.51;57.35;99389.95;101844;1305;75186;-24
2022/11/09 11:23:24;;;;;;;8.30;4.20;;;;;;;13.36;58.10;99389.09;101737;1308;62720;-24
2022/11/09 11:26:34;;;;;;;8.20;5.40;;;;;;;13.34;57.78;99387.55;101813;1305;62619;-24
2022/11/09 11:29:23;;;;;;;7.10;5.00;;;;;;;13.25;57.79;99387.46;101826;1297;74691;-24
2022/11/09 11:32:13;;;;;;;7.40;5.00;;;;;;;13.05;58.52;99384.98;101872;1305;76970;-24
2022/11/09 11:34:58;;;;;;;8.70;3.80;;;;;;;13.10;59.46;99379.64;101798;1304;75299;-25
2022/11/09 11:38:19;;;;;;;9.70;6.10;;;;;;;13.21;58.57;99377.98;101868;1297;61558;-26
2022/11/09 11:41:05;;;;;;;8.70;5.50;;;;;;;13.22;58.95;99371.49;101554;1305;61715;-26
2022/11/09 11:44:19;;;;;;;9.00;6.20;;;;;;;13.23;59.02;99372.06;101881;1305;74609;-26
2022/11/09 11:47:19;;;;;;;9.10;6.50;;;;;;;13.36;59.30;99371.46;101851;1297;76935;-27
2022/11/09 11:50:17;;;;;;;9.70;5.70;;;;;;;13.30;59.41;99368.02;101805;1305;74056;-26